createdAt,value
2023-02-01T00:00:08.831Z,13.67
2023-02-01T00:02:42.345Z,13.66
2023-02-01T00:05:12.356Z,13.67
2023-02-01T00:07:41.757Z,13.66
2023-02-01T00:10:12.023Z,13.72
2023-02-01T00:12:41.678Z,13.67
2023-02-01T00:15:11.923Z,13.70
2023-02-01T00:17:42.706Z,13.68
2023-02-01T00:20:12.714Z,13.57
2023-02-01T00:22:42.299Z,13.61
2023-02-01T00:25:13.108Z,13.61
2023-02-01T00:27:42.832Z,13.55
2023-02-01T00:30:13.226Z,13.55
2023-02-01T00:32:42.652Z,13.50
2023-02-01T00:35:13.513Z,13.50
2023-02-01T00:37:43.199Z,13.49
2023-02-01T00:40:13.165Z,13.50
2023-02-01T00:42:42.717Z,13.53
2023-02-01T00:45:12.756Z,13.57
2023-02-01T00:47:42.308Z,13.57
2023-02-01T00:50:12.604Z,13.59
2023-02-01T00:52:42.186Z,13.53
2023-02-01T00:55:11.508Z,13.55
2023-02-01T00:57:41.130Z,13.51
2023-02-01T01:00:13.233Z,13.53
2023-02-01T01:02:44.530Z,13.55
2023-02-01T01:05:18.889Z,13.47
2023-02-01T01:07:49.268Z,13.43
2023-02-01T01:10:19.787Z,13.42
2023-02-01T01:12:50.466Z,13.40
2023-02-01T01:15:21.153Z,13.35
2023-02-01T01:17:54.338Z,13.10
2023-02-01T01:20:36.878Z,13.19
2023-02-01T01:23:09.936Z,12.99
2023-02-01T01:29:44.054Z,12.93
2023-02-01T01:32:14.803Z,12.99
2023-02-01T01:34:45.265Z,12.94
2023-02-01T01:37:26.586Z,13.06
2023-02-01T01:39:58.169Z,13.01
2023-02-01T01:42:28.385Z,13.00
2023-02-01T01:45:09.222Z,13.17
2023-02-01T01:47:49.532Z,13.19
2023-02-01T01:50:26.408Z,13.11
2023-02-01T01:53:00.443Z,12.95
2023-02-01T01:55:35.030Z,12.90
2023-02-01T01:58:13.273Z,13.06
2023-02-01T02:00:44.850Z,12.95
2023-02-01T02:03:52.533Z,13.14
2023-02-01T02:06:34.053Z,13.06
2023-02-01T02:09:06.929Z,12.75
2023-02-01T02:11:37.448Z,12.87
2023-02-01T02:14:50.106Z,12.95
2023-02-01T02:17:39.151Z,13.03
2023-02-01T02:20:42.721Z,13.06
2023-02-01T02:24:05.908Z,13.16
2023-02-01T02:27:03.449Z,13.19
2023-02-01T02:29:58.511Z,13.19
2023-02-01T02:32:50.086Z,13.27
2023-02-01T02:35:46.977Z,13.27
2023-02-01T02:38:39.493Z,13.30
2023-02-01T02:41:40.483Z,13.33
2023-02-01T02:44:52.864Z,13.44
2023-02-01T02:47:51.698Z,13.56
2023-02-01T02:50:53.292Z,13.62
2023-02-01T02:54:09.445Z,13.71
2023-02-01T02:56:59.140Z,13.73
2023-02-01T02:59:49.808Z,13.75
2023-02-01T03:02:38.569Z,13.88
2023-02-01T03:05:08.602Z,13.87
2023-02-01T03:07:47.416Z,14.12
2023-02-01T03:10:23.480Z,14.19
2023-02-01T03:13:00.879Z,14.20
2023-02-01T03:15:42.437Z,14.39
2023-02-01T03:18:31.145Z,14.40
2023-02-01T03:21:05.547Z,14.40
2023-02-01T03:23:40.362Z,14.45
2023-02-01T03:26:17.126Z,14.51
2023-02-01T03:28:57.818Z,14.52
2023-02-01T03:31:29.599Z,14.53
2023-02-01T03:33:59.041Z,14.62
2023-02-01T03:36:37.640Z,14.77
2023-02-01T03:39:19.921Z,14.90
2023-02-01T03:41:57.748Z,14.71
2023-02-01T03:44:54.040Z,14.98
2023-02-01T03:47:29.598Z,14.99
2023-02-01T03:50:09.356Z,15.06
2023-02-01T03:52:51.321Z,15.11
2023-02-01T03:55:24.378Z,14.98
2023-02-01T03:58:12.030Z,15.25
2023-02-01T04:00:41.940Z,15.06
2023-02-01T04:03:11.079Z,15.11
2023-02-01T04:05:39.843Z,15.15
2023-02-01T04:08:10.803Z,15.23
2023-02-01T04:10:40.106Z,15.32
2023-02-01T04:13:10.216Z,15.39
2023-02-01T04:15:40.271Z,15.49
2023-02-01T04:18:09.080Z,15.50
2023-02-01T04:20:38.480Z,15.56
2023-02-01T04:23:07.673Z,15.72
2023-02-01T04:25:36.895Z,15.71
2023-02-01T04:28:06.702Z,15.73
2023-02-01T04:30:36.372Z,15.87
2023-02-01T04:33:08.471Z,15.83
2023-02-01T04:35:37.798Z,15.85
2023-02-01T04:38:06.711Z,15.99
2023-02-01T04:40:36.376Z,16.03
2023-02-01T04:43:19.408Z,16.19
2023-02-01T04:45:57.796Z,16.30
2023-02-01T04:48:27.296Z,16.29
2023-02-01T04:50:56.291Z,16.30
2023-02-01T04:53:25.413Z,16.40
2023-02-01T04:55:54.613Z,16.50
2023-02-01T04:58:23.949Z,16.58
2023-02-01T05:00:53.683Z,16.68
2023-02-01T05:03:23.083Z,16.70
2023-02-01T05:05:53.917Z,16.76
2023-02-01T05:08:27.296Z,16.59
2023-02-01T05:10:56.785Z,16.73
2023-02-01T05:13:44.233Z,16.97
2023-02-01T05:16:16.084Z,17.03
2023-02-01T05:18:45.719Z,17.13
2023-02-01T05:21:15.319Z,17.29
2023-02-01T05:24:03.669Z,17.31
2023-02-01T05:26:33.178Z,17.31
2023-02-01T05:29:06.520Z,17.53
2023-02-01T05:31:44.690Z,17.40
2023-02-01T05:34:20.888Z,17.77
2023-02-01T05:36:54.708Z,17.85
2023-02-01T05:39:56.176Z,17.76
2023-02-01T05:42:35.750Z,17.84
2023-02-01T05:45:17.916Z,17.94
2023-02-01T05:47:48.274Z,17.91
2023-02-01T05:50:19.705Z,18.12
2023-02-01T05:52:50.483Z,18.15
2023-02-01T05:55:21.145Z,18.23
2023-02-01T05:57:51.653Z,18.26
2023-02-01T06:00:24.346Z,18.76
2023-02-01T06:02:58.367Z,18.39
2023-02-01T06:05:54.139Z,18.60
2023-02-01T06:08:33.175Z,18.80
2023-02-01T06:11:10.935Z,19.05
2023-02-01T06:13:42.340Z,19.06
2023-02-01T06:16:19.436Z,19.17
2023-02-01T06:19:01.480Z,19.20
2023-02-01T06:21:31.978Z,19.25
2023-02-01T06:24:03.545Z,19.27
2023-02-01T06:26:34.138Z,19.11
2023-02-01T06:29:04.232Z,19.25
2023-02-01T06:31:37.998Z,19.29
2023-02-01T06:34:08.422Z,19.45
2023-02-01T06:36:38.893Z,19.58
2023-02-01T06:39:09.466Z,19.56
2023-02-01T06:41:39.756Z,19.33
2023-02-01T06:44:09.817Z,19.66
2023-02-01T06:46:40.064Z,19.71
2023-02-01T06:49:11.086Z,20.04
2023-02-01T06:51:54.019Z,20.08
2023-02-01T06:54:47.584Z,19.60
2023-02-01T06:57:21.685Z,20.07
2023-02-01T06:59:51.352Z,19.95
2023-02-01T07:02:20.555Z,19.98
2023-02-01T07:04:49.985Z,19.91
2023-02-01T07:07:21.507Z,19.98
2023-02-01T07:10:01.567Z,20.22
2023-02-01T07:12:31.077Z,20.13
2023-02-01T07:15:00.413Z,20.13
2023-02-01T07:17:31.270Z,20.17
2023-02-01T07:20:02.077Z,20.32
2023-02-01T07:22:31.462Z,20.31
2023-02-01T07:25:00.656Z,20.26
2023-02-01T07:27:29.827Z,20.44
2023-02-01T07:30:02.053Z,20.51
2023-02-01T07:32:32.286Z,20.53
2023-02-01T07:35:01.583Z,20.44
2023-02-01T07:37:31.845Z,20.47
2023-02-01T07:40:01.090Z,20.38
2023-02-01T07:42:30.351Z,20.57
2023-02-01T07:45:07.890Z,20.63
2023-02-01T07:47:44.274Z,20.47
2023-02-01T07:50:13.311Z,20.76
2023-02-01T07:52:42.713Z,20.63
2023-02-01T07:55:12.284Z,20.69
2023-02-01T07:57:41.722Z,20.63
2023-02-01T08:00:44.278Z,20.56
2023-02-01T08:03:14.150Z,20.60
2023-02-01T08:05:44.771Z,20.61
2023-02-01T08:08:15.004Z,20.79
2023-02-01T08:10:44.356Z,20.77
2023-02-01T08:13:13.556Z,20.86
2023-02-01T08:15:42.816Z,20.94
2023-02-01T08:18:13.113Z,21.13
2023-02-01T08:20:44.472Z,21.18
2023-02-01T08:26:39.186Z,21.22
2023-02-01T08:29:11.364Z,21.21
2023-02-01T08:31:44.017Z,21.23
2023-02-01T08:34:16.423Z,21.36
2023-02-01T08:37:00.487Z,21.51
2023-02-01T08:43:18.950Z,21.38
2023-02-01T08:45:48.525Z,21.52
2023-02-01T08:48:18.293Z,21.51
2023-02-01T08:50:47.995Z,21.52
2023-02-01T08:53:23.597Z,21.70
2023-02-01T08:55:53.557Z,21.70
2023-02-01T08:58:23.767Z,21.43
2023-02-01T09:00:54.066Z,21.50
2023-02-01T09:03:24.494Z,21.58
2023-02-01T09:05:54.645Z,21.53
2023-02-01T09:08:24.438Z,21.59
2023-02-01T09:10:53.810Z,21.57
2023-02-01T09:13:24.761Z,21.47
2023-02-01T09:15:54.633Z,21.57
2023-02-01T09:18:24.418Z,21.57
2023-02-01T09:25:32.473Z,21.90
2023-02-01T09:28:02.682Z,21.52
2023-02-01T09:30:33.069Z,21.52
2023-02-01T09:33:03.294Z,21.42
2023-02-01T09:35:33.470Z,21.54
2023-02-01T09:42:26.386Z,21.83
2023-02-01T09:45:12.962Z,21.67
2023-02-01T09:48:13.415Z,21.63
2023-02-01T09:50:56.453Z,21.63
2023-02-01T09:53:33.901Z,21.59
2023-02-01T09:56:25.958Z,21.68
2023-02-01T09:59:45.793Z,21.86
2023-02-01T10:02:27.497Z,21.68
2023-02-01T10:05:05.704Z,21.53
2023-02-01T10:07:46.210Z,21.64
2023-02-01T10:10:28.632Z,21.66
2023-02-01T10:13:21.559Z,21.68
2023-02-01T10:16:16.913Z,21.84
2023-02-01T10:19:19.272Z,21.91
2023-02-01T10:22:12.817Z,21.73
2023-02-01T10:24:53.840Z,21.79
2023-02-01T10:27:32.459Z,21.60
2023-02-01T10:30:19.244Z,21.83
2023-02-01T10:32:52.488Z,21.72
2023-02-01T10:35:30.936Z,21.79
2023-02-01T10:38:04.874Z,21.78
2023-02-01T10:40:37.063Z,21.75
2023-02-01T10:43:06.413Z,21.78
2023-02-01T10:45:40.707Z,21.73
2023-02-01T10:48:12.307Z,21.81
2023-02-01T10:51:19.810Z,22.03
2023-02-01T10:54:04.969Z,21.95
2023-02-01T10:56:43.073Z,21.94
2023-02-01T11:00:11.925Z,21.94
2023-02-01T11:02:42.083Z,21.67
2023-02-01T11:05:14.256Z,21.85
2023-02-01T11:07:51.016Z,21.94
2023-02-01T11:10:40.111Z,21.99
2023-02-01T11:13:21.913Z,21.72
2023-02-01T11:16:00.593Z,21.83
2023-02-01T11:18:32.511Z,21.54
2023-02-01T11:21:02.809Z,21.42
2023-02-01T11:23:35.589Z,21.51
2023-02-01T11:26:23.161Z,21.53
2023-02-01T11:29:18.869Z,21.49
2023-02-01T11:31:53.439Z,21.22
2023-02-01T11:34:32.943Z,21.21
2023-02-01T11:37:08.111Z,21.11
2023-02-01T11:39:47.649Z,21.17
2023-02-01T11:42:23.105Z,21.03
2023-02-01T11:45:41.166Z,21.14
2023-02-01T11:49:00.200Z,21.05
2023-02-01T11:53:30.449Z,21.08
2023-02-01T12:00:46.519Z,20.99
2023-02-01T12:03:59.960Z,20.94
2023-02-01T12:06:56.242Z,20.83
2023-02-01T12:09:40.874Z,20.69
2023-02-01T12:12:29.918Z,20.65
2023-02-01T12:15:17.082Z,20.53
2023-02-01T12:18:24.674Z,20.59
2023-02-01T12:21:25.175Z,20.45
2023-02-01T12:24:12.820Z,20.45
2023-02-01T12:26:57.330Z,20.28
2023-02-01T12:30:39.164Z,20.29
2023-02-01T12:33:51.701Z,20.24
2023-02-01T12:36:44.206Z,20.26
2023-02-01T12:43:13.503Z,20.04
2023-02-01T12:45:59.697Z,19.92
2023-02-01T12:48:29.186Z,19.71
2023-02-01T12:51:10.443Z,19.91
2023-02-01T12:54:13.166Z,19.89
2023-02-01T12:56:45.762Z,19.62
2023-02-01T12:59:33.460Z,19.82
2023-02-01T13:02:32.000Z,19.77
2023-02-01T13:05:14.219Z,19.48
2023-02-01T13:07:50.431Z,19.58
2023-02-01T13:11:04.690Z,19.63
2023-02-01T13:13:50.903Z,19.46
2023-02-01T13:16:29.117Z,19.24
2023-02-01T13:19:43.156Z,19.51
2023-02-01T13:22:38.233Z,19.31
2023-02-01T13:25:46.976Z,19.34
2023-02-01T13:28:41.229Z,19.21
2023-02-01T13:31:11.744Z,18.97
2023-02-01T13:34:25.545Z,19.18
2023-02-01T13:37:10.475Z,19.14
2023-02-01T13:39:57.711Z,19.01
2023-02-01T13:42:40.589Z,18.99
2023-02-01T13:45:27.499Z,19.06
2023-02-01T13:48:01.030Z,18.98
2023-02-01T13:50:39.551Z,18.92
2023-02-01T13:53:24.179Z,18.95
2023-02-01T13:56:02.499Z,18.70
2023-02-01T13:58:35.811Z,18.86
2023-02-01T14:01:23.901Z,19.01
2023-02-01T14:04:05.140Z,18.84
2023-02-01T14:06:45.731Z,18.78
2023-02-01T14:09:39.187Z,18.79
2023-02-01T14:16:14.426Z,18.54
2023-02-01T14:18:49.492Z,18.39
2023-02-01T14:21:35.380Z,18.31
2023-02-01T14:24:10.413Z,18.17
2023-02-01T14:26:50.839Z,18.23
2023-02-01T14:29:29.523Z,17.93
2023-02-01T14:32:18.734Z,18.11
2023-02-01T14:34:51.337Z,17.97
2023-02-01T14:37:20.773Z,18.15
2023-02-01T14:40:19.404Z,17.98
2023-02-01T14:42:54.670Z,17.74
2023-02-01T14:45:24.611Z,17.57
2023-02-01T14:48:09.832Z,17.77
2023-02-01T14:50:53.747Z,17.67
2023-02-01T14:53:38.461Z,17.56
2023-02-01T14:56:17.250Z,17.55
2023-02-01T14:59:19.986Z,17.67
2023-02-01T15:01:54.964Z,17.50
2023-02-01T15:04:29.755Z,17.44
2023-02-01T15:07:18.760Z,17.54
2023-02-01T15:09:51.722Z,17.38
2023-02-01T15:12:36.862Z,17.40
2023-02-01T15:15:27.685Z,17.34
2023-02-01T15:18:02.263Z,17.21
2023-02-01T15:20:34.474Z,17.19
2023-02-01T15:23:06.377Z,17.54
2023-02-01T15:25:40.339Z,17.32
2023-02-01T15:28:16.653Z,17.30
2023-02-01T15:31:01.422Z,17.35
2023-02-01T15:33:33.063Z,17.14
2023-02-01T15:36:08.514Z,17.23
2023-02-01T15:38:46.773Z,16.95
2023-02-01T15:41:21.504Z,17.17
2023-02-01T15:44:16.851Z,17.10
2023-02-01T15:46:49.556Z,17.01
2023-02-01T15:49:23.115Z,17.23
2023-02-01T15:51:52.814Z,16.86
2023-02-01T15:54:46.213Z,17.05
2023-02-01T15:57:33.396Z,16.93
2023-02-01T16:00:42.895Z,17.01
2023-02-01T16:03:35.757Z,16.94
2023-02-01T16:06:08.549Z,16.78
2023-02-01T16:08:39.120Z,16.67
2023-02-01T16:11:10.773Z,16.78
2023-02-01T16:13:39.775Z,16.53
2023-02-01T16:16:10.813Z,16.38
2023-02-01T16:18:39.838Z,16.30
2023-02-01T16:21:12.543Z,16.26
2023-02-01T16:23:42.543Z,16.23
2023-02-01T16:26:13.662Z,16.26
2023-02-01T16:28:43.691Z,16.21
2023-02-01T16:31:22.117Z,16.27
2023-02-01T16:33:54.206Z,16.19
2023-02-01T16:36:24.987Z,16.17
2023-02-01T16:38:56.116Z,16.08
2023-02-01T16:41:27.226Z,16.03
2023-02-01T16:43:58.237Z,16.03
2023-02-01T16:46:32.269Z,16.04
2023-02-01T16:49:03.382Z,15.95
2023-02-01T16:51:37.679Z,16.00
2023-02-01T16:54:07.509Z,15.86
2023-02-01T16:56:37.997Z,15.84
2023-02-01T16:59:07.929Z,15.85
2023-02-01T17:01:39.794Z,15.84
2023-02-01T17:04:09.945Z,15.72
2023-02-01T17:06:41.068Z,15.79
2023-02-01T17:09:12.626Z,15.80
2023-02-01T17:11:41.908Z,15.70
2023-02-01T17:14:18.225Z,15.88
2023-02-01T17:16:50.208Z,15.71
2023-02-01T17:19:24.841Z,15.71
2023-02-01T17:22:00.390Z,15.75
2023-02-01T17:24:42.719Z,15.66
2023-02-01T17:27:18.661Z,15.57
2023-02-01T17:29:49.522Z,15.45
2023-02-01T17:32:25.299Z,15.58
2023-02-01T17:34:54.384Z,15.43
2023-02-01T17:37:34.698Z,15.65
2023-02-01T17:40:04.385Z,15.39
2023-02-01T17:42:33.169Z,15.37
2023-02-01T17:45:13.246Z,15.44
2023-02-01T17:47:42.384Z,15.29
2023-02-01T17:50:11.977Z,15.26
2023-02-01T17:52:42.075Z,15.18
2023-02-01T17:55:24.360Z,15.45
2023-02-01T17:57:53.701Z,15.21
2023-02-01T18:00:23.292Z,15.24
2023-02-01T18:02:53.612Z,15.02
2023-02-01T18:05:30.524Z,15.12
2023-02-01T18:07:59.502Z,14.89
2023-02-01T18:10:28.297Z,14.90
2023-02-01T18:12:58.495Z,14.91
2023-02-01T18:15:27.611Z,14.96
2023-02-01T18:17:56.364Z,15.00
2023-02-01T18:20:28.137Z,15.11
2023-02-01T18:22:57.284Z,15.03
2023-02-01T18:25:28.751Z,15.07
2023-02-01T18:27:58.627Z,15.00
2023-02-01T18:30:33.857Z,15.11
2023-02-01T18:33:03.013Z,14.93
2023-02-01T18:35:33.742Z,14.98
2023-02-01T18:38:02.803Z,14.88
2023-02-01T18:40:47.010Z,15.19
2023-02-01T18:43:16.091Z,14.90
2023-02-01T18:45:46.478Z,14.94
2023-02-01T18:48:17.696Z,14.93
2023-02-01T18:50:47.383Z,14.89
2023-02-01T18:53:28.479Z,15.06
2023-02-01T18:55:59.410Z,14.92
2023-02-01T18:58:28.989Z,14.82
2023-02-01T19:01:00.361Z,14.90
2023-02-01T19:03:29.850Z,14.79
2023-02-01T19:05:59.527Z,14.80
2023-02-01T19:08:28.940Z,14.77
2023-02-01T19:11:01.465Z,14.74
2023-02-01T19:13:32.127Z,14.73
2023-02-01T19:16:06.909Z,14.69
2023-02-01T19:18:37.131Z,14.66
2023-02-01T19:21:12.030Z,14.74
2023-02-01T19:23:42.401Z,14.68
2023-02-01T19:26:16.364Z,14.74
2023-02-01T19:28:49.775Z,14.49
2023-02-01T19:31:20.350Z,14.42
2023-02-01T19:33:49.339Z,14.48
2023-02-01T19:36:18.171Z,14.46
2023-02-01T19:38:47.704Z,14.47
2023-02-01T19:41:16.453Z,14.48
2023-02-01T19:43:45.852Z,14.47
2023-02-01T19:46:14.893Z,14.35
2023-02-01T19:48:44.061Z,14.36
2023-02-01T19:51:13.677Z,14.38
2023-02-01T19:53:43.043Z,14.41
2023-02-01T19:56:11.930Z,14.50
2023-02-01T19:58:41.597Z,14.51
2023-02-01T20:01:09.706Z,14.58
2023-02-01T20:03:39.581Z,14.64
2023-02-01T20:06:08.556Z,14.76
2023-02-01T20:08:37.921Z,14.84
2023-02-01T20:11:09.892Z,15.08
2023-02-01T20:13:39.563Z,14.98
2023-02-01T20:16:11.015Z,15.02
2023-02-01T20:18:40.756Z,15.11
2023-02-01T20:21:09.770Z,15.17
2023-02-01T20:23:38.938Z,15.22
2023-02-01T20:26:12.312Z,15.30
2023-02-01T20:28:42.251Z,15.30
2023-02-01T20:31:16.490Z,15.33
2023-02-01T20:33:46.072Z,15.36
2023-02-01T20:36:15.198Z,15.40
2023-02-01T20:38:44.300Z,15.37
2023-02-01T20:41:13.571Z,15.34
2023-02-01T20:43:43.137Z,15.40
2023-02-01T20:46:12.419Z,15.38
2023-02-01T20:48:45.020Z,15.49
2023-02-01T20:51:17.169Z,15.48
2023-02-01T20:53:48.605Z,15.39
2023-02-01T20:56:17.972Z,15.43
2023-02-01T20:58:47.153Z,15.41
2023-02-01T21:01:17.321Z,15.41
2023-02-01T21:03:46.723Z,15.38
2023-02-01T21:06:15.663Z,15.42
2023-02-01T21:08:44.916Z,15.33
2023-02-01T21:11:16.906Z,15.35
2023-02-01T21:13:55.630Z,15.24
2023-02-01T21:16:24.998Z,15.05
2023-02-01T21:18:54.643Z,15.07
2023-02-01T21:21:24.059Z,14.98
2023-02-01T21:23:54.106Z,14.95
2023-02-01T21:26:26.079Z,15.00
2023-02-01T21:28:57.002Z,14.94
2023-02-01T21:31:26.749Z,14.86
2023-02-01T21:33:55.543Z,14.80
2023-02-01T21:36:25.671Z,14.77
2023-02-01T21:39:04.441Z,14.79
2023-02-01T21:41:53.858Z,14.53
2023-02-01T21:44:24.085Z,14.43
2023-02-01T21:46:53.086Z,14.46
2023-02-01T21:49:23.383Z,14.45
2023-02-01T21:51:52.657Z,14.43
2023-02-01T21:54:21.897Z,14.43
2023-02-01T21:56:51.012Z,14.41
2023-02-01T21:59:20.142Z,14.39
2023-02-01T22:01:49.308Z,14.36
2023-02-01T22:04:18.654Z,14.38
2023-02-01T22:06:48.069Z,14.29
2023-02-01T22:09:23.016Z,14.21
2023-02-01T22:11:54.745Z,14.00
2023-02-01T22:14:24.686Z,13.91
2023-02-01T22:16:53.949Z,13.99
2023-02-01T22:19:23.570Z,14.02
2023-02-01T22:21:52.450Z,14.12
2023-02-01T22:24:23.100Z,14.24
2023-02-01T22:26:52.978Z,14.22
2023-02-01T22:29:24.722Z,14.26
2023-02-01T22:31:54.456Z,14.25
2023-02-01T22:34:25.286Z,14.18
2023-02-01T22:36:54.665Z,14.20
2023-02-01T22:39:25.008Z,14.12
2023-02-01T22:41:55.174Z,14.21
2023-02-01T22:44:25.673Z,14.08
2023-02-01T22:46:54.798Z,14.09
2023-02-01T22:49:24.303Z,13.98
2023-02-01T22:51:53.613Z,13.84
2023-02-01T22:54:25.453Z,13.88
2023-02-01T22:56:54.770Z,13.84
2023-02-01T22:59:23.902Z,13.83
2023-02-01T23:01:53.595Z,13.79
2023-02-01T23:04:23.826Z,13.81
2023-02-01T23:06:53.613Z,13.82
2023-02-01T23:09:26.280Z,13.94
2023-02-01T23:11:56.608Z,13.81
2023-02-01T23:14:26.040Z,13.74
2023-02-01T23:16:59.349Z,13.75
2023-02-01T23:19:28.209Z,13.71
2023-02-01T23:21:57.222Z,13.74
2023-02-01T23:24:26.609Z,13.67
2023-02-01T23:26:55.580Z,13.70
2023-02-01T23:29:24.672Z,13.66
2023-02-01T23:31:53.718Z,13.74
2023-02-01T23:34:22.995Z,13.69
2023-02-01T23:36:51.895Z,13.67
2023-02-01T23:39:21.193Z,13.67
2023-02-01T23:41:50.133Z,13.60
2023-02-01T23:44:19.208Z,13.57
2023-02-01T23:46:51.019Z,13.56
2023-02-01T23:49:20.474Z,13.58
2023-02-01T23:51:54.104Z,13.52
2023-02-01T23:54:24.815Z,13.50
2023-02-01T23:56:54.315Z,13.42
2023-02-01T23:59:27.462Z,13.22
